sensor_id;sensor_type;location;lat;lon;timestamp;P1;durP1;ratioP1;P2;durP2;ratioP2
55222;SDS011;41090;48.632;12.428;2024-02-26T00:00:57;25.17;;;19.17;;
55222;SDS011;41090;48.632;12.428;2024-02-26T00:03:22;28.13;;;19.40;;
55222;SDS011;41090;48.632;12.428;2024-02-26T00:05:47;25.10;;;19.03;;
55222;SDS011;41090;48.632;12.428;2024-02-26T00:08:12;28.00;;;19.20;;
55222;SDS011;41090;48.632;12.428;2024-02-26T00:10:38;25.77;;;19.77;;
55222;SDS011;41090;48.632;12.428;2024-02-26T00:13:03;24.77;;;18.53;;
55222;SDS011;41090;48.632;12.428;2024-02-26T00:15:29;29.03;;;20.90;;
55222;SDS011;41090;48.632;12.428;2024-02-26T00:17:54;29.47;;;21.37;;
55222;SDS011;41090;48.632;12.428;2024-02-26T00:20:19;28.20;;;21.20;;
55222;SDS011;41090;48.632;12.428;2024-02-26T00:22:44;28.17;;;19.93;;
55222;SDS011;41090;48.632;12.428;2024-02-26T00:25:09;27.03;;;20.73;;
55222;SDS011;41090;48.632;12.428;2024-02-26T00:27:37;25.83;;;20.33;;
55222;SDS011;41090;48.632;12.428;2024-02-26T00:30:04;26.60;;;19.73;;
55222;SDS011;41090;48.632;12.428;2024-02-26T00:32:29;32.80;;;22.17;;
55222;SDS011;41090;48.632;12.428;2024-02-26T00:34:55;28.90;;;21.27;;
55222;SDS011;41090;48.632;12.428;2024-02-26T00:37:20;26.70;;;20.33;;
55222;SDS011;41090;48.632;12.428;2024-02-26T00:39:45;29.80;;;21.63;;
55222;SDS011;41090;48.632;12.428;2024-02-26T00:42:11;26.73;;;20.13;;
55222;SDS011;41090;48.632;12.428;2024-02-26T00:44:36;27.03;;;20.70;;
55222;SDS011;41090;48.632;12.428;2024-02-26T00:47:02;27.47;;;20.30;;
55222;SDS011;41090;48.632;12.428;2024-02-26T00:49:27;25.33;;;19.03;;
55222;SDS011;41090;48.632;12.428;2024-02-26T00:51:52;25.70;;;19.40;;
55222;SDS011;41090;48.632;12.428;2024-02-26T00:54:17;27.80;;;20.30;;
55222;SDS011;41090;48.632;12.428;2024-02-26T00:56:42;31.03;;;21.50;;
55222;SDS011;41090;48.632;12.428;2024-02-26T00:59:08;28.07;;;19.67;;
55222;SDS011;41090;48.632;12.428;2024-02-26T01:01:33;27.63;;;20.83;;
55222;SDS011;41090;48.632;12.428;2024-02-26T01:03:58;26.27;;;18.33;;
55222;SDS011;41090;48.632;12.428;2024-02-26T01:06:23;27.27;;;20.17;;
55222;SDS011;41090;48.632;12.428;2024-02-26T01:08:48;26.57;;;19.53;;
55222;SDS011;41090;48.632;12.428;2024-02-26T01:11:14;25.90;;;19.23;;
55222;SDS011;41090;48.632;12.428;2024-02-26T01:13:39;26.33;;;19.20;;
55222;SDS011;41090;48.632;12.428;2024-02-26T01:16:04;24.80;;;17.80;;
55222;SDS011;41090;48.632;12.428;2024-02-26T01:18:29;28.63;;;20.13;;
55222;SDS011;41090;48.632;12.428;2024-02-26T01:20:55;27.77;;;20.57;;
55222;SDS011;41090;48.632;12.428;2024-02-26T01:23:20;24.63;;;18.90;;
55222;SDS011;41090;48.632;12.428;2024-02-26T01:25:45;26.73;;;20.07;;
55222;SDS011;41090;48.632;12.428;2024-02-26T01:28:10;26.80;;;19.73;;
55222;SDS011;41090;48.632;12.428;2024-02-26T01:30:36;27.17;;;19.67;;
55222;SDS011;41090;48.632;12.428;2024-02-26T01:33:01;27.07;;;19.17;;
55222;SDS011;41090;48.632;12.428;2024-02-26T01:35:26;25.60;;;18.00;;
55222;SDS011;41090;48.632;12.428;2024-02-26T01:37:51;24.70;;;18.40;;
55222;SDS011;41090;48.632;12.428;2024-02-26T01:40:16;24.23;;;18.27;;
55222;SDS011;41090;48.632;12.428;2024-02-26T01:42:44;25.37;;;18.33;;
55222;SDS011;41090;48.632;12.428;2024-02-26T01:45:14;27.30;;;19.87;;
55222;SDS011;41090;48.632;12.428;2024-02-26T01:47:41;26.03;;;20.37;;
55222;SDS011;41090;48.632;12.428;2024-02-26T01:50:06;25.37;;;19.67;;
55222;SDS011;41090;48.632;12.428;2024-02-26T01:52:31;24.20;;;19.97;;
55222;SDS011;41090;48.632;12.428;2024-02-26T01:54:57;23.77;;;18.60;;
55222;SDS011;41090;48.632;12.428;2024-02-26T01:57:22;24.50;;;18.03;;
55222;SDS011;41090;48.632;12.428;2024-02-26T01:59:48;27.27;;;19.20;;
55222;SDS011;41090;48.632;12.428;2024-02-26T02:02:13;26.23;;;19.40;;
55222;SDS011;41090;48.632;12.428;2024-02-26T02:04:40;27.47;;;20.97;;
55222;SDS011;41090;48.632;12.428;2024-02-26T02:07:05;26.27;;;19.37;;
55222;SDS011;41090;48.632;12.428;2024-02-26T02:09:31;25.53;;;18.23;;
55222;SDS011;41090;48.632;12.428;2024-02-26T02:11:56;26.30;;;19.67;;
55222;SDS011;41090;48.632;12.428;2024-02-26T02:14:22;26.27;;;19.33;;
55222;SDS011;41090;48.632;12.428;2024-02-26T02:16:47;28.17;;;19.90;;
55222;SDS011;41090;48.632;12.428;2024-02-26T02:19:13;25.63;;;18.93;;
55222;SDS011;41090;48.632;12.428;2024-02-26T02:21:38;27.83;;;20.67;;
55222;SDS011;41090;48.632;12.428;2024-02-26T02:24:03;28.23;;;20.00;;
55222;SDS011;41090;48.632;12.428;2024-02-26T02:26:28;25.80;;;19.27;;
55222;SDS011;41090;48.632;12.428;2024-02-26T02:28:54;27.73;;;19.40;;
55222;SDS011;41090;48.632;12.428;2024-02-26T02:31:19;23.10;;;17.77;;
55222;SDS011;41090;48.632;12.428;2024-02-26T02:33:44;26.40;;;18.93;;
55222;SDS011;41090;48.632;12.428;2024-02-26T02:36:09;25.70;;;19.03;;
55222;SDS011;41090;48.632;12.428;2024-02-26T02:38:36;26.37;;;19.43;;
55222;SDS011;41090;48.632;12.428;2024-02-26T02:41:01;29.63;;;20.97;;
55222;SDS011;41090;48.632;12.428;2024-02-26T02:43:27;26.83;;;19.90;;
55222;SDS011;41090;48.632;12.428;2024-02-26T02:45:52;27.80;;;19.73;;
55222;SDS011;41090;48.632;12.428;2024-02-26T02:48:17;25.87;;;19.33;;
55222;SDS011;41090;48.632;12.428;2024-02-26T02:50:42;29.57;;;21.30;;
55222;SDS011;41090;48.632;12.428;2024-02-26T02:53:08;27.43;;;20.87;;
55222;SDS011;41090;48.632;12.428;2024-02-26T02:55:33;30.07;;;21.13;;
55222;SDS011;41090;48.632;12.428;2024-02-26T02:57:58;27.53;;;21.20;;
55222;SDS011;41090;48.632;12.428;2024-02-26T03:00:23;26.03;;;19.37;;
55222;SDS011;41090;48.632;12.428;2024-02-26T03:02:49;27.20;;;20.57;;
55222;SDS011;41090;48.632;12.428;2024-02-26T03:05:14;27.20;;;19.83;;
55222;SDS011;41090;48.632;12.428;2024-02-26T03:07:39;30.47;;;20.60;;
55222;SDS011;41090;48.632;12.428;2024-02-26T03:10:05;27.40;;;20.33;;
55222;SDS011;41090;48.632;12.428;2024-02-26T03:12:30;29.33;;;20.57;;
55222;SDS011;41090;48.632;12.428;2024-02-26T03:14:55;28.00;;;21.00;;
55222;SDS011;41090;48.632;12.428;2024-02-26T03:17:21;28.73;;;20.50;;
55222;SDS011;41090;48.632;12.428;2024-02-26T03:19:46;29.83;;;20.70;;
55222;SDS011;41090;48.632;12.428;2024-02-26T03:22:12;26.70;;;20.70;;
55222;SDS011;41090;48.632;12.428;2024-02-26T03:24:37;28.27;;;21.27;;
55222;SDS011;41090;48.632;12.428;2024-02-26T03:27:02;26.97;;;21.07;;
55222;SDS011;41090;48.632;12.428;2024-02-26T03:29:27;29.50;;;20.80;;
55222;SDS011;41090;48.632;12.428;2024-02-26T03:31:52;27.17;;;19.30;;
55222;SDS011;41090;48.632;12.428;2024-02-26T03:34:18;27.97;;;19.10;;
55222;SDS011;41090;48.632;12.428;2024-02-26T03:36:44;24.87;;;18.80;;
55222;SDS011;41090;48.632;12.428;2024-02-26T03:39:10;27.03;;;18.57;;
55222;SDS011;41090;48.632;12.428;2024-02-26T03:41:35;25.60;;;19.10;;
55222;SDS011;41090;48.632;12.428;2024-02-26T03:44:00;28.20;;;20.20;;
55222;SDS011;41090;48.632;12.428;2024-02-26T03:46:26;28.00;;;19.47;;
55222;SDS011;41090;48.632;12.428;2024-02-26T03:48:51;25.23;;;18.63;;
55222;SDS011;41090;48.632;12.428;2024-02-26T03:51:16;26.40;;;19.23;;
55222;SDS011;41090;48.632;12.428;2024-02-26T03:53:41;28.63;;;19.63;;
55222;SDS011;41090;48.632;12.428;2024-02-26T03:56:06;27.50;;;20.37;;
55222;SDS011;41090;48.632;12.428;2024-02-26T03:58:32;30.07;;;20.60;;
55222;SDS011;41090;48.632;12.428;2024-02-26T04:00:57;25.53;;;18.87;;
55222;SDS011;41090;48.632;12.428;2024-02-26T04:03:22;26.33;;;19.60;;
55222;SDS011;41090;48.632;12.428;2024-02-26T04:05:48;27.10;;;20.07;;
55222;SDS011;41090;48.632;12.428;2024-02-26T04:08:13;26.87;;;20.87;;
55222;SDS011;41090;48.632;12.428;2024-02-26T04:10:38;31.90;;;23.20;;
55222;SDS011;41090;48.632;12.428;2024-02-26T04:13:04;32.90;;;24.10;;
55222;SDS011;41090;48.632;12.428;2024-02-26T04:15:29;32.23;;;24.53;;
55222;SDS011;41090;48.632;12.428;2024-02-26T04:17:55;34.23;;;24.13;;
55222;SDS011;41090;48.632;12.428;2024-02-26T04:20:20;35.70;;;25.23;;
55222;SDS011;41090;48.632;12.428;2024-02-26T04:22:45;30.17;;;22.97;;
55222;SDS011;41090;48.632;12.428;2024-02-26T04:25:11;31.47;;;23.73;;
55222;SDS011;41090;48.632;12.428;2024-02-26T04:27:36;34.17;;;24.57;;
55222;SDS011;41090;48.632;12.428;2024-02-26T04:30:01;35.77;;;25.97;;
55222;SDS011;41090;48.632;12.428;2024-02-26T04:32:29;37.27;;;26.43;;
55222;SDS011;41090;48.632;12.428;2024-02-26T04:34:54;37.83;;;26.73;;
55222;SDS011;41090;48.632;12.428;2024-02-26T04:37:19;35.33;;;24.37;;
55222;SDS011;41090;48.632;12.428;2024-02-26T04:39:44;35.33;;;23.87;;
55222;SDS011;41090;48.632;12.428;2024-02-26T04:42:10;35.33;;;24.37;;
55222;SDS011;41090;48.632;12.428;2024-02-26T04:44:35;34.87;;;24.00;;
55222;SDS011;41090;48.632;12.428;2024-02-26T04:47:01;33.00;;;23.57;;
55222;SDS011;41090;48.632;12.428;2024-02-26T04:49:26;31.07;;;23.33;;
55222;SDS011;41090;48.632;12.428;2024-02-26T04:51:52;33.43;;;23.73;;
55222;SDS011;41090;48.632;12.428;2024-02-26T04:54:17;35.73;;;24.97;;
55222;SDS011;41090;48.632;12.428;2024-02-26T04:56:42;35.43;;;25.47;;
55222;SDS011;41090;48.632;12.428;2024-02-26T04:59:07;35.93;;;24.97;;
55222;SDS011;41090;48.632;12.428;2024-02-26T05:01:33;36.90;;;26.00;;
55222;SDS011;41090;48.632;12.428;2024-02-26T05:03:58;36.80;;;25.53;;
55222;SDS011;41090;48.632;12.428;2024-02-26T05:06:23;38.17;;;26.20;;
55222;SDS011;41090;48.632;12.428;2024-02-26T05:08:48;34.17;;;25.20;;
55222;SDS011;41090;48.632;12.428;2024-02-26T05:11:13;37.93;;;27.30;;
55222;SDS011;41090;48.632;12.428;2024-02-26T05:13:39;40.33;;;26.93;;
55222;SDS011;41090;48.632;12.428;2024-02-26T05:16:04;41.27;;;27.70;;
55222;SDS011;41090;48.632;12.428;2024-02-26T05:18:29;38.07;;;27.17;;
55222;SDS011;41090;48.632;12.428;2024-02-26T05:20:54;36.00;;;24.80;;
55222;SDS011;41090;48.632;12.428;2024-02-26T05:23:20;38.43;;;26.03;;
55222;SDS011;41090;48.632;12.428;2024-02-26T05:25:45;40.30;;;26.23;;
55222;SDS011;41090;48.632;12.428;2024-02-26T05:28:12;35.63;;;25.23;;
55222;SDS011;41090;48.632;12.428;2024-02-26T05:30:37;41.37;;;27.53;;
55222;SDS011;41090;48.632;12.428;2024-02-26T05:33:04;35.33;;;23.83;;
55222;SDS011;41090;48.632;12.428;2024-02-26T05:35:30;43.20;;;27.50;;
55222;SDS011;41090;48.632;12.428;2024-02-26T05:37:55;43.67;;;27.13;;
55222;SDS011;41090;48.632;12.428;2024-02-26T05:40:20;35.90;;;25.33;;
55222;SDS011;41090;48.632;12.428;2024-02-26T05:42:45;36.33;;;26.40;;
55222;SDS011;41090;48.632;12.428;2024-02-26T05:45:10;32.03;;;24.47;;
55222;SDS011;41090;48.632;12.428;2024-02-26T05:47:36;37.03;;;25.40;;
55222;SDS011;41090;48.632;12.428;2024-02-26T05:50:07;40.13;;;27.17;;
55222;SDS011;41090;48.632;12.428;2024-02-26T05:52:32;35.63;;;24.93;;
55222;SDS011;41090;48.632;12.428;2024-02-26T05:54:57;35.73;;;25.00;;
55222;SDS011;41090;48.632;12.428;2024-02-26T05:57:23;33.53;;;24.83;;
55222;SDS011;41090;48.632;12.428;2024-02-26T05:59:48;34.17;;;23.90;;
55222;SDS011;41090;48.632;12.428;2024-02-26T06:02:13;32.57;;;24.07;;
55222;SDS011;41090;48.632;12.428;2024-02-26T06:04:38;32.60;;;23.93;;
55222;SDS011;41090;48.632;12.428;2024-02-26T06:07:04;31.60;;;21.00;;
55222;SDS011;41090;48.632;12.428;2024-02-26T06:09:30;28.53;;;20.87;;
55222;SDS011;41090;48.632;12.428;2024-02-26T06:11:55;28.43;;;20.17;;
55222;SDS011;41090;48.632;12.428;2024-02-26T06:14:20;28.30;;;20.67;;
55222;SDS011;41090;48.632;12.428;2024-02-26T06:16:45;30.33;;;21.47;;
55222;SDS011;41090;48.632;12.428;2024-02-26T06:19:11;29.73;;;22.73;;
55222;SDS011;41090;48.632;12.428;2024-02-26T06:21:36;28.80;;;21.83;;
55222;SDS011;41090;48.632;12.428;2024-02-26T06:24:01;28.90;;;20.73;;
55222;SDS011;41090;48.632;12.428;2024-02-26T06:26:26;29.70;;;21.77;;
55222;SDS011;41090;48.632;12.428;2024-02-26T06:28:54;31.17;;;23.73;;
55222;SDS011;41090;48.632;12.428;2024-02-26T06:31:19;31.03;;;22.80;;
55222;SDS011;41090;48.632;12.428;2024-02-26T06:33:46;34.77;;;22.90;;
55222;SDS011;41090;48.632;12.428;2024-02-26T06:36:11;30.83;;;22.37;;
55222;SDS011;41090;48.632;12.428;2024-02-26T06:38:36;29.10;;;21.77;;
55222;SDS011;41090;48.632;12.428;2024-02-26T06:41:03;29.70;;;21.33;;
55222;SDS011;41090;48.632;12.428;2024-02-26T06:43:28;25.73;;;20.53;;
55222;SDS011;41090;48.632;12.428;2024-02-26T06:45:54;28.40;;;20.43;;
55222;SDS011;41090;48.632;12.428;2024-02-26T06:48:19;31.40;;;23.00;;
55222;SDS011;41090;48.632;12.428;2024-02-26T06:50:44;26.20;;;21.57;;
55222;SDS011;41090;48.632;12.428;2024-02-26T06:53:09;26.17;;;20.43;;
55222;SDS011;41090;48.632;12.428;2024-02-26T06:55:34;26.13;;;20.40;;
55222;SDS011;41090;48.632;12.428;2024-02-26T06:58:00;25.57;;;20.60;;
55222;SDS011;41090;48.632;12.428;2024-02-26T07:00:25;24.17;;;20.20;;
55222;SDS011;41090;48.632;12.428;2024-02-26T07:02:50;25.90;;;19.60;;
55222;SDS011;41090;48.632;12.428;2024-02-26T07:05:15;25.83;;;19.80;;
55222;SDS011;41090;48.632;12.428;2024-02-26T07:07:41;26.83;;;18.93;;
55222;SDS011;41090;48.632;12.428;2024-02-26T07:10:06;22.93;;;19.33;;
55222;SDS011;41090;48.632;12.428;2024-02-26T07:12:31;24.30;;;19.40;;
55222;SDS011;41090;48.632;12.428;2024-02-26T07:14:56;22.97;;;20.47;;
55222;SDS011;41090;48.632;12.428;2024-02-26T07:17:22;27.00;;;20.50;;
55222;SDS011;41090;48.632;12.428;2024-02-26T07:19:48;25.10;;;20.67;;
55222;SDS011;41090;48.632;12.428;2024-02-26T07:22:13;24.43;;;19.27;;
55222;SDS011;41090;48.632;12.428;2024-02-26T07:24:38;21.63;;;18.57;;
55222;SDS011;41090;48.632;12.428;2024-02-26T07:27:04;23.30;;;18.30;;
55222;SDS011;41090;48.632;12.428;2024-02-26T07:29:29;21.73;;;18.33;;
55222;SDS011;41090;48.632;12.428;2024-02-26T07:31:54;25.43;;;18.97;;
55222;SDS011;41090;48.632;12.428;2024-02-26T07:34:19;20.60;;;18.40;;
55222;SDS011;41090;48.632;12.428;2024-02-26T07:36:44;23.00;;;19.17;;
55222;SDS011;41090;48.632;12.428;2024-02-26T07:39:09;24.30;;;19.00;;
55222;SDS011;41090;48.632;12.428;2024-02-26T07:41:35;23.77;;;21.23;;
55222;SDS011;41090;48.632;12.428;2024-02-26T07:44:00;40.63;;;28.67;;
55222;SDS011;41090;48.632;12.428;2024-02-26T07:46:25;49.20;;;33.57;;
55222;SDS011;41090;48.632;12.428;2024-02-26T07:48:50;30.87;;;25.17;;
55222;SDS011;41090;48.632;12.428;2024-02-26T07:51:15;22.93;;;19.90;;
55222;SDS011;41090;48.632;12.428;2024-02-26T07:53:42;22.77;;;20.37;;
55222;SDS011;41090;48.632;12.428;2024-02-26T07:56:07;23.07;;;20.63;;
55222;SDS011;41090;48.632;12.428;2024-02-26T07:58:32;22.10;;;18.20;;
55222;SDS011;41090;48.632;12.428;2024-02-26T08:00:58;18.10;;;16.30;;
55222;SDS011;41090;48.632;12.428;2024-02-26T08:03:23;17.20;;;15.37;;
55222;SDS011;41090;48.632;12.428;2024-02-26T08:05:48;18.97;;;15.87;;
55222;SDS011;41090;48.632;12.428;2024-02-26T08:08:13;17.60;;;15.67;;
55222;SDS011;41090;48.632;12.428;2024-02-26T08:10:39;18.33;;;15.30;;
55222;SDS011;41090;48.632;12.428;2024-02-26T08:13:04;19.27;;;15.50;;
55222;SDS011;41090;48.632;12.428;2024-02-26T08:15:32;16.87;;;15.07;;
55222;SDS011;41090;48.632;12.428;2024-02-26T08:17:59;16.77;;;13.90;;
55222;SDS011;41090;48.632;12.428;2024-02-26T08:20:27;15.00;;;13.50;;
55222;SDS011;41090;48.632;12.428;2024-02-26T08:22:52;15.47;;;13.87;;
55222;SDS011;41090;48.632;12.428;2024-02-26T08:25:17;15.93;;;13.83;;
55222;SDS011;41090;48.632;12.428;2024-02-26T08:27:43;15.17;;;13.10;;
55222;SDS011;41090;48.632;12.428;2024-02-26T08:30:08;14.97;;;12.87;;
55222;SDS011;41090;48.632;12.428;2024-02-26T08:32:34;14.90;;;13.40;;
55222;SDS011;41090;48.632;12.428;2024-02-26T08:34:59;15.40;;;13.80;;
55222;SDS011;41090;48.632;12.428;2024-02-26T08:37:24;14.80;;;13.20;;
55222;SDS011;41090;48.632;12.428;2024-02-26T08:39:49;14.47;;;12.80;;
55222;SDS011;41090;48.632;12.428;2024-02-26T08:42:14;15.97;;;13.73;;
55222;SDS011;41090;48.632;12.428;2024-02-26T08:44:39;26.00;;;14.30;;
55222;SDS011;41090;48.632;12.428;2024-02-26T08:47:05;15.83;;;14.10;;
55222;SDS011;41090;48.632;12.428;2024-02-26T08:49:30;13.67;;;12.07;;
55222;SDS011;41090;48.632;12.428;2024-02-26T08:51:56;13.60;;;12.20;;
55222;SDS011;41090;48.632;12.428;2024-02-26T08:54:21;13.30;;;11.90;;
55222;SDS011;41090;48.632;12.428;2024-02-26T08:56:46;12.70;;;11.50;;
55222;SDS011;41090;48.632;12.428;2024-02-26T08:59:12;12.23;;;10.93;;
55222;SDS011;41090;48.632;12.428;2024-02-26T09:01:37;11.43;;;10.23;;
55222;SDS011;41090;48.632;12.428;2024-02-26T09:04:02;11.05;;;9.82;;
55222;SDS011;41090;48.632;12.428;2024-02-26T09:06:27;10.10;;;9.10;;
55222;SDS011;41090;48.632;12.428;2024-02-26T09:08:53;11.37;;;9.37;;
55222;SDS011;41090;48.632;12.428;2024-02-26T09:11:18;10.67;;;9.23;;
55222;SDS011;41090;48.632;12.428;2024-02-26T09:13:43;10.33;;;8.90;;
55222;SDS011;41090;48.632;12.428;2024-02-26T09:16:08;10.90;;;9.10;;
55222;SDS011;41090;48.632;12.428;2024-02-26T09:18:34;10.47;;;8.30;;
55222;SDS011;41090;48.632;12.428;2024-02-26T09:20:59;10.67;;;8.93;;
55222;SDS011;41090;48.632;12.428;2024-02-26T09:23:24;9.90;;;8.90;;
55222;SDS011;41090;48.632;12.428;2024-02-26T09:25:49;9.40;;;8.40;;
55222;SDS011;41090;48.632;12.428;2024-02-26T09:28:15;9.73;;;8.73;;
55222;SDS011;41090;48.632;12.428;2024-02-26T09:30:43;8.40;;;7.60;;
55222;SDS011;41090;48.632;12.428;2024-02-26T09:33:08;7.50;;;6.80;;
55222;SDS011;41090;48.632;12.428;2024-02-26T09:35:33;8.18;;;7.38;;
55222;SDS011;41090;48.632;12.428;2024-02-26T09:37:59;8.30;;;7.50;;
55222;SDS011;41090;48.632;12.428;2024-02-26T09:40:24;7.93;;;7.22;;
55222;SDS011;41090;48.632;12.428;2024-02-26T09:42:49;7.35;;;6.65;;
55222;SDS011;41090;48.632;12.428;2024-02-26T09:45:18;7.90;;;7.10;;
55222;SDS011;41090;48.632;12.428;2024-02-26T09:47:45;6.90;;;6.25;;
55222;SDS011;41090;48.632;12.428;2024-02-26T09:50:12;7.60;;;6.65;;
55222;SDS011;41090;48.632;12.428;2024-02-26T09:52:38;7.50;;;6.82;;
55222;SDS011;41090;48.632;12.428;2024-02-26T09:55:04;7.28;;;6.60;;
55222;SDS011;41090;48.632;12.428;2024-02-26T09:57:30;7.88;;;7.03;;
55222;SDS011;41090;48.632;12.428;2024-02-26T09:59:56;7.18;;;6.47;;
55222;SDS011;41090;48.632;12.428;2024-02-26T10:02:24;7.03;;;6.40;;
55222;SDS011;41090;48.632;12.428;2024-02-26T10:04:49;8.30;;;6.22;;
55222;SDS011;41090;48.632;12.428;2024-02-26T10:07:16;6.45;;;5.85;;
55222;SDS011;41090;48.632;12.428;2024-02-26T10:09:41;6.72;;;6.13;;
55222;SDS011;41090;48.632;12.428;2024-02-26T10:12:08;6.57;;;5.97;;
55222;SDS011;41090;48.632;12.428;2024-02-26T10:14:34;6.85;;;5.90;;
55222;SDS011;41090;48.632;12.428;2024-02-26T10:17:01;6.60;;;5.75;;
55222;SDS011;41090;48.632;12.428;2024-02-26T10:19:27;7.90;;;5.68;;
55222;SDS011;41090;48.632;12.428;2024-02-26T10:21:59;6.40;;;5.80;;
55222;SDS011;41090;48.632;12.428;2024-02-26T10:24:25;6.53;;;5.80;;
55222;SDS011;41090;48.632;12.428;2024-02-26T10:26:51;6.65;;;5.88;;
55222;SDS011;41090;48.632;12.428;2024-02-26T10:29:16;9.18;;;6.25;;
55222;SDS011;41090;48.632;12.428;2024-02-26T10:31:42;8.10;;;6.10;;
55222;SDS011;41090;48.632;12.428;2024-02-26T10:34:07;8.00;;;6.37;;
55222;SDS011;41090;48.632;12.428;2024-02-26T10:36:33;7.20;;;5.93;;
55222;SDS011;41090;48.632;12.428;2024-02-26T10:39:01;6.90;;;6.20;;
55222;SDS011;41090;48.632;12.428;2024-02-26T10:41:26;6.73;;;6.03;;
55222;SDS011;41090;48.632;12.428;2024-02-26T10:43:52;7.33;;;6.20;;
55222;SDS011;41090;48.632;12.428;2024-02-26T10:46:17;8.77;;;6.03;;
55222;SDS011;41090;48.632;12.428;2024-02-26T10:48:49;7.47;;;6.10;;
55222;SDS011;41090;48.632;12.428;2024-02-26T10:51:14;7.40;;;5.93;;
55222;SDS011;41090;48.632;12.428;2024-02-26T10:53:39;6.57;;;5.87;;
55222;SDS011;41090;48.632;12.428;2024-02-26T10:56:07;6.97;;;6.27;;
55222;SDS011;41090;48.632;12.428;2024-02-26T10:58:33;5.87;;;5.27;;
55222;SDS011;41090;48.632;12.428;2024-02-26T11:00:58;6.33;;;5.43;;
55222;SDS011;41090;48.632;12.428;2024-02-26T11:03:24;5.60;;;5.10;;
55222;SDS011;41090;48.632;12.428;2024-02-26T11:05:50;7.33;;;5.30;;
55222;SDS011;41090;48.632;12.428;2024-02-26T11:08:18;5.80;;;5.20;;
55222;SDS011;41090;48.632;12.428;2024-02-26T11:10:44;5.53;;;4.90;;
55222;SDS011;41090;48.632;12.428;2024-02-26T11:13:12;7.97;;;5.50;;
55222;SDS011;41090;48.632;12.428;2024-02-26T11:15:39;5.40;;;4.90;;
55222;SDS011;41090;48.632;12.428;2024-02-26T11:18:04;5.43;;;4.93;;
55222;SDS011;41090;48.632;12.428;2024-02-26T11:20:29;5.80;;;4.70;;
55222;SDS011;41090;48.632;12.428;2024-02-26T11:22:55;6.77;;;4.90;;
55222;SDS011;41090;48.632;12.428;2024-02-26T11:25:20;4.97;;;4.43;;
55222;SDS011;41090;48.632;12.428;2024-02-26T11:27:47;5.47;;;4.47;;
55222;SDS011;41090;48.632;12.428;2024-02-26T11:30:14;6.73;;;3.93;;
55222;SDS011;41090;48.632;12.428;2024-02-26T11:32:40;5.50;;;4.50;;
55222;SDS011;41090;48.632;12.428;2024-02-26T11:35:08;6.60;;;4.50;;
55222;SDS011;41090;48.632;12.428;2024-02-26T11:37:35;5.27;;;4.77;;
55222;SDS011;41090;48.632;12.428;2024-02-26T11:40:00;4.50;;;4.07;;
55222;SDS011;41090;48.632;12.428;2024-02-26T11:42:26;4.30;;;3.67;;
55222;SDS011;41090;48.632;12.428;2024-02-26T11:44:53;5.17;;;3.70;;
55222;SDS011;41090;48.632;12.428;2024-02-26T11:47:21;6.13;;;3.50;;
55222;SDS011;41090;48.632;12.428;2024-02-26T11:49:47;4.60;;;3.80;;
55222;SDS011;41090;48.632;12.428;2024-02-26T11:52:13;4.07;;;3.50;;
55222;SDS011;41090;48.632;12.428;2024-02-26T11:57:03;9.60;;;7.70;;
55222;SDS011;41090;48.632;12.428;2024-02-26T11:59:38;9.37;;;7.47;;
55222;SDS011;41090;48.632;12.428;2024-02-26T12:02:03;17.43;;;12.30;;
55222;SDS011;41090;48.632;12.428;2024-02-26T12:04:29;8.23;;;6.37;;
55222;SDS011;41090;48.632;12.428;2024-02-26T12:06:56;4.90;;;4.40;;
55222;SDS011;41090;48.632;12.428;2024-02-26T12:09:31;7.57;;;5.90;;
55222;SDS011;41090;48.632;12.428;2024-02-26T12:11:56;6.63;;;4.80;;
55222;SDS011;41090;48.632;12.428;2024-02-26T12:14:24;5.23;;;4.60;;
55222;SDS011;41090;48.632;12.428;2024-02-26T12:16:49;5.93;;;5.33;;
55222;SDS011;41090;48.632;12.428;2024-02-26T12:19:15;6.07;;;5.30;;
55222;SDS011;41090;48.632;12.428;2024-02-26T12:21:40;5.20;;;4.70;;
55222;SDS011;41090;48.632;12.428;2024-02-26T12:24:12;4.90;;;4.40;;
55222;SDS011;41090;48.632;12.428;2024-02-26T12:26:38;5.40;;;4.60;;
55222;SDS011;41090;48.632;12.428;2024-02-26T12:29:04;4.53;;;4.13;;
55222;SDS011;41090;48.632;12.428;2024-02-26T12:31:29;4.53;;;4.13;;
55222;SDS011;41090;48.632;12.428;2024-02-26T12:33:56;5.40;;;4.10;;
55222;SDS011;41090;48.632;12.428;2024-02-26T12:36:21;4.27;;;3.87;;
55222;SDS011;41090;48.632;12.428;2024-02-26T12:38:48;4.03;;;3.63;;
55222;SDS011;41090;48.632;12.428;2024-02-26T12:41:13;3.87;;;3.30;;
55222;SDS011;41090;48.632;12.428;2024-02-26T12:43:39;4.67;;;3.67;;
55222;SDS011;41090;48.632;12.428;2024-02-26T12:46:04;4.53;;;3.83;;
55222;SDS011;41090;48.632;12.428;2024-02-26T12:48:29;4.20;;;3.73;;
55222;SDS011;41090;48.632;12.428;2024-02-26T12:50:55;5.17;;;3.67;;
55222;SDS011;41090;48.632;12.428;2024-02-26T12:53:21;6.17;;;3.70;;
55222;SDS011;41090;48.632;12.428;2024-02-26T12:55:46;3.40;;;3.10;;
55222;SDS011;41090;48.632;12.428;2024-02-26T12:58:11;3.77;;;3.47;;
55222;SDS011;41090;48.632;12.428;2024-02-26T13:00:37;4.17;;;3.77;;
55222;SDS011;41090;48.632;12.428;2024-02-26T13:03:03;3.90;;;3.50;;
55222;SDS011;41090;48.632;12.428;2024-02-26T13:05:28;4.70;;;3.50;;
55222;SDS011;41090;48.632;12.428;2024-02-26T13:07:54;5.10;;;4.60;;
55222;SDS011;41090;48.632;12.428;2024-02-26T13:10:20;5.30;;;4.57;;
55222;SDS011;41090;48.632;12.428;2024-02-26T13:12:46;4.10;;;3.67;;
55222;SDS011;41090;48.632;12.428;2024-02-26T13:15:15;5.33;;;4.10;;
55222;SDS011;41090;48.632;12.428;2024-02-26T13:17:41;5.60;;;4.20;;
55222;SDS011;41090;48.632;12.428;2024-02-26T13:20:07;4.85;;;4.20;;
55222;SDS011;41090;48.632;12.428;2024-02-26T13:22:34;4.63;;;4.07;;
55222;SDS011;41090;48.632;12.428;2024-02-26T13:25:00;5.28;;;3.60;;
55222;SDS011;41090;48.632;12.428;2024-02-26T13:27:27;4.03;;;3.63;;
55222;SDS011;41090;48.632;12.428;2024-02-26T13:30:05;3.83;;;3.30;;
55222;SDS011;41090;48.632;12.428;2024-02-26T13:32:40;3.92;;;3.50;;
55222;SDS011;41090;48.632;12.428;2024-02-26T13:35:09;4.63;;;3.90;;
55222;SDS011;41090;48.632;12.428;2024-02-26T13:37:35;5.00;;;3.53;;
55222;SDS011;41090;48.632;12.428;2024-02-26T13:40:00;4.05;;;3.63;;
55222;SDS011;41090;48.632;12.428;2024-02-26T13:42:29;4.20;;;3.78;;
55222;SDS011;41090;48.632;12.428;2024-02-26T13:44:54;4.15;;;3.75;;
55222;SDS011;41090;48.632;12.428;2024-02-26T13:47:19;3.80;;;3.50;;
55222;SDS011;41090;48.632;12.428;2024-02-26T13:49:45;5.07;;;3.90;;
55222;SDS011;41090;48.632;12.428;2024-02-26T13:52:10;4.10;;;3.70;;
55222;SDS011;41090;48.632;12.428;2024-02-26T13:54:35;4.50;;;3.40;;
55222;SDS011;41090;48.632;12.428;2024-02-26T13:57:03;4.20;;;3.20;;
55222;SDS011;41090;48.632;12.428;2024-02-26T13:59:28;3.80;;;3.17;;
55222;SDS011;41090;48.632;12.428;2024-02-26T14:01:53;3.60;;;3.30;;
55222;SDS011;41090;48.632;12.428;2024-02-26T14:04:20;5.60;;;3.30;;
55222;SDS011;41090;48.632;12.428;2024-02-26T14:06:45;5.50;;;3.47;;
55222;SDS011;41090;48.632;12.428;2024-02-26T14:09:10;5.03;;;3.00;;
55222;SDS011;41090;48.632;12.428;2024-02-26T14:11:35;5.47;;;3.47;;